createdAt,value
2019-05-06T00:01:27.346Z,8.30
2019-05-06T00:03:57.353Z,9.30
2019-05-06T00:06:27.719Z,9.10
2019-05-06T00:08:57.703Z,11.10
2019-05-06T00:11:27.635Z,9.03
2019-05-06T00:13:57.542Z,9.68
2019-05-06T00:16:27.703Z,7.65
2019-05-06T00:18:57.593Z,7.92
2019-05-06T00:21:27.572Z,10.00
2019-05-06T00:23:57.573Z,8.47
2019-05-06T00:26:46.450Z,8.95
2019-05-06T00:29:18.821Z,7.90
2019-05-06T00:31:48.824Z,7.17
2019-05-06T00:34:18.770Z,8.08
2019-05-06T00:36:48.876Z,8.33
2019-05-06T00:39:36.429Z,8.90
2019-05-06T00:42:13.930Z,8.55
2019-05-06T00:44:44.350Z,8.78
2019-05-06T00:47:14.317Z,8.13
2019-05-06T00:49:44.697Z,8.15
2019-05-06T00:52:14.638Z,10.35
2019-05-06T00:54:44.676Z,9.43
2019-05-06T00:57:14.931Z,9.38
2019-05-06T00:59:44.875Z,8.93
2019-05-06T01:02:14.882Z,10.38
2019-05-06T01:04:44.773Z,9.75
2019-05-06T01:07:14.739Z,10.95
2019-05-06T01:09:44.974Z,10.90
2019-05-06T01:12:15.190Z,8.67
2019-05-06T01:14:48.982Z,10.30
2019-05-06T01:17:18.895Z,8.65
2019-05-06T01:19:48.806Z,9.88
2019-05-06T01:22:19.045Z,9.73
2019-05-06T01:24:49.053Z,10.20
2019-05-06T01:27:19.239Z,11.38
2019-05-06T01:29:49.249Z,11.15
2019-05-06T01:32:19.268Z,9.23
2019-05-06T01:34:49.203Z,10.23
2019-05-06T01:37:19.208Z,8.30
2019-05-06T01:40:08.018Z,11.23
2019-05-06T01:42:42.184Z,7.77
2019-05-06T01:45:14.139Z,8.75
2019-05-06T01:47:44.152Z,7.80
2019-05-06T01:50:14.531Z,9.00
2019-05-06T01:52:44.452Z,8.83
2019-05-06T01:55:14.747Z,10.75
2019-05-06T01:57:44.712Z,8.90
2019-05-06T02:00:16.903Z,8.83
2019-05-06T02:02:47.275Z,8.80
2019-05-06T02:05:17.573Z,10.37
2019-05-06T02:07:47.984Z,8.00
2019-05-06T02:10:17.941Z,8.70
2019-05-06T02:12:47.855Z,9.27
2019-05-06T02:15:18.022Z,6.90
2019-05-06T02:17:48.046Z,7.95
2019-05-06T02:20:18.200Z,7.03
2019-05-06T02:22:57.526Z,8.87
2019-05-06T02:25:34.193Z,8.83
2019-05-06T02:28:04.392Z,8.93
2019-05-06T02:30:45.515Z,9.73
2019-05-06T02:33:24.562Z,8.67
2019-05-06T02:36:06.561Z,9.05
2019-05-06T02:38:46.567Z,10.03
2019-05-06T02:41:07.615Z,10.07
2019-05-06T02:43:37.631Z,9.03
2019-05-06T02:46:07.598Z,9.83
2019-05-06T02:48:54.319Z,9.13
2019-05-06T02:51:27.007Z,8.90
2019-05-06T02:53:56.890Z,7.50
2019-05-06T02:56:26.871Z,8.50
2019-05-06T02:58:57.367Z,8.23
2019-05-06T03:01:27.366Z,9.23
2019-05-06T03:03:57.257Z,7.83
2019-05-06T03:06:27.452Z,8.18
2019-05-06T03:08:57.387Z,7.27
2019-05-06T03:11:27.379Z,7.50
2019-05-06T03:13:57.326Z,7.33
2019-05-06T03:16:27.195Z,7.40
2019-05-06T03:18:57.155Z,8.97
2019-05-06T03:21:37.047Z,7.43
2019-05-06T03:24:24.725Z,6.57
2019-05-06T03:26:56.917Z,6.40
2019-05-06T03:29:26.769Z,7.60
2019-05-06T03:31:57.391Z,7.30
2019-05-06T03:34:49.390Z,7.20
2019-05-06T03:36:59.257Z,6.50
2019-05-06T03:39:29.114Z,7.53
2019-05-06T03:41:59.133Z,6.80
2019-05-06T03:44:29.079Z,6.70
2019-05-06T03:47:30.135Z,7.53
2019-05-06T03:50:00.085Z,6.90
2019-05-06T03:52:34.188Z,6.50
2019-05-06T03:55:04.092Z,7.00
2019-05-06T03:57:35.928Z,7.03
2019-05-06T04:00:07.541Z,6.53
2019-05-06T04:02:39.886Z,7.20
2019-05-06T04:05:13.230Z,6.40
2019-05-06T04:07:45.955Z,7.03
2019-05-06T04:10:14.959Z,7.23
2019-05-06T04:12:45.833Z,6.33
2019-05-06T04:15:16.147Z,7.07
2019-05-06T04:17:49.605Z,6.50
2019-05-06T04:20:26.546Z,7.17
2019-05-06T04:23:05.973Z,6.90
2019-05-06T04:25:52.942Z,7.27
2019-05-06T04:28:25.634Z,6.70
2019-05-06T04:30:55.719Z,8.00
2019-05-06T04:33:25.804Z,6.90
2019-05-06T04:35:55.831Z,7.87
2019-05-06T04:38:25.780Z,6.20
2019-05-06T04:40:55.885Z,7.50
2019-05-06T04:43:26.865Z,7.00
2019-05-06T04:45:57.289Z,7.90
2019-05-06T04:48:27.349Z,6.50
2019-05-06T04:50:57.402Z,7.50
2019-05-06T04:53:27.399Z,7.47
2019-05-06T04:55:57.419Z,7.20
2019-05-06T04:58:27.776Z,7.53
2019-05-06T05:00:58.000Z,7.70
2019-05-06T05:03:28.011Z,6.90
2019-05-06T05:06:01.405Z,6.37
2019-05-06T05:08:38.681Z,7.97
2019-05-06T05:11:33.258Z,7.40
2019-05-06T05:14:10.230Z,7.03
2019-05-06T05:16:48.825Z,7.53
2019-05-06T05:19:18.987Z,7.00
2019-05-06T05:21:49.152Z,7.60
2019-05-06T05:24:19.118Z,8.07
2019-05-06T05:26:49.291Z,7.50
2019-05-06T05:29:19.379Z,8.37
2019-05-06T05:31:49.391Z,7.00
2019-05-06T05:34:19.549Z,6.87
2019-05-06T05:36:49.558Z,8.10
2019-05-06T05:39:21.812Z,7.87
2019-05-06T05:41:53.505Z,8.63
2019-05-06T05:44:26.807Z,8.27
2019-05-06T05:46:56.997Z,9.30
2019-05-06T05:49:55.119Z,9.80
2019-05-06T05:52:25.086Z,9.20
2019-05-06T05:54:55.817Z,9.27
2019-05-06T05:57:25.843Z,8.60
2019-05-06T05:59:55.907Z,8.70
2019-05-06T06:02:26.031Z,7.90
2019-05-06T06:04:57.668Z,8.30
2019-05-06T06:07:28.073Z,9.03
2019-05-06T06:10:04.713Z,9.13
2019-05-06T06:12:34.818Z,8.10
2019-05-06T06:15:24.226Z,8.67
2019-05-06T06:18:33.218Z,6.03
2019-05-06T06:21:37.348Z,7.47
2019-05-06T06:24:13.248Z,8.13
2019-05-06T06:26:43.197Z,6.37
2019-05-06T06:29:13.160Z,7.50
2019-05-06T06:32:03.126Z,7.13
2019-05-06T06:34:52.007Z,7.93
2019-05-06T06:37:39.376Z,6.93
2019-05-06T06:40:10.230Z,6.67
2019-05-06T06:42:40.204Z,7.50
2019-05-06T06:45:12.318Z,6.60
2019-05-06T06:47:42.632Z,6.70
2019-05-06T06:50:12.897Z,7.53
2019-05-06T06:52:42.939Z,7.00
2019-05-06T06:55:13.104Z,7.13
2019-05-06T06:58:08.235Z,5.97
2019-05-06T07:00:55.623Z,7.47
2019-05-06T07:03:32.750Z,8.80
2019-05-06T07:06:13.915Z,8.00
2019-05-06T07:08:43.847Z,7.90
2019-05-06T07:11:13.821Z,7.70
2019-05-06T07:13:53.158Z,7.60
2019-05-06T07:16:23.613Z,8.03
2019-05-06T07:18:53.545Z,7.90
2019-05-06T07:21:42.984Z,8.67
2019-05-06T07:24:13.105Z,8.80
2019-05-06T07:26:52.307Z,6.87
2019-05-06T07:29:26.038Z,8.50
2019-05-06T07:31:54.664Z,7.67
2019-05-06T07:34:24.521Z,8.83
2019-05-06T07:36:54.493Z,9.63
2019-05-06T07:39:26.440Z,7.70
2019-05-06T07:41:58.916Z,8.63
2019-05-06T07:44:49.176Z,7.30
2019-05-06T07:47:33.212Z,7.30
2019-05-06T07:50:03.363Z,9.57
2019-05-06T07:52:33.252Z,10.10
2019-05-06T07:55:03.190Z,9.03
2019-05-06T07:57:33.183Z,9.13
2019-05-06T08:00:03.777Z,10.57
2019-05-06T08:02:33.810Z,11.20
2019-05-06T08:05:07.284Z,13.40
2019-05-06T08:07:35.799Z,11.13
2019-05-06T08:10:06.935Z,10.63
2019-05-06T08:12:37.014Z,10.53
2019-05-06T08:15:07.870Z,9.80
2019-05-06T08:17:42.323Z,10.17
2019-05-06T08:20:13.682Z,12.33
2019-05-06T08:23:05.822Z,11.57
2019-05-06T08:26:08.312Z,12.20
2019-05-06T08:28:37.480Z,12.07
2019-05-06T08:30:57.613Z,11.37
2019-05-06T08:33:27.832Z,11.83
2019-05-06T08:36:08.855Z,11.60
2019-05-06T08:38:32.709Z,10.93
2019-05-06T08:41:02.787Z,11.70
2019-05-06T08:43:32.780Z,11.10
2019-05-06T08:46:03.295Z,13.10
2019-05-06T08:48:33.276Z,13.23
2019-05-06T08:51:15.024Z,12.60
2019-05-06T08:53:59.769Z,13.10
2019-05-06T08:56:32.086Z,11.90
2019-05-06T08:59:03.172Z,12.33
2019-05-06T09:01:49.879Z,10.80
2019-05-06T09:04:19.968Z,11.27
2019-05-06T09:06:49.937Z,12.00
2019-05-06T09:09:19.813Z,9.80
2019-05-06T09:11:49.848Z,11.37
2019-05-06T09:14:19.784Z,11.20
2019-05-06T09:16:51.358Z,12.20
2019-05-06T09:19:23.293Z,9.90
2019-05-06T09:21:53.552Z,10.30
2019-05-06T09:24:23.807Z,10.30
2019-05-06T09:27:14.087Z,10.57
2019-05-06T09:29:49.345Z,10.30
2019-05-06T09:32:35.643Z,10.60
2019-05-06T09:35:02.982Z,10.20
2019-05-06T09:37:32.951Z,9.63
2019-05-06T09:40:03.704Z,8.63
2019-05-06T09:42:33.652Z,11.77
2019-05-06T09:45:03.965Z,10.80
2019-05-06T09:47:58.506Z,9.90
2019-05-06T09:50:45.465Z,9.93
2019-05-06T09:53:24.661Z,8.10
2019-05-06T09:56:33.488Z,9.40
2019-05-06T09:59:03.143Z,10.20
2019-05-06T10:01:33.328Z,9.77
2019-05-06T10:04:07.344Z,8.67
2019-05-06T10:06:38.070Z,9.30
2019-05-06T10:09:15.798Z,8.70
2019-05-06T10:11:44.418Z,9.57
2019-05-06T10:14:14.978Z,8.70
2019-05-06T10:16:45.122Z,8.33
2019-05-06T10:19:15.177Z,8.27
2019-05-06T10:21:45.190Z,8.10
2019-05-06T10:24:15.059Z,7.20
2019-05-06T10:26:52.201Z,8.00
2019-05-06T10:29:43.245Z,7.60
2019-05-06T10:32:22.329Z,6.37
2019-05-06T10:34:52.621Z,7.87
2019-05-06T10:37:49.522Z,8.23
2019-05-06T10:40:26.287Z,7.80
2019-05-06T10:43:07.515Z,8.00
2019-05-06T10:45:37.764Z,7.20
2019-05-06T10:48:08.230Z,8.23
2019-05-06T10:50:43.574Z,6.90
2019-05-06T10:53:18.421Z,8.80
2019-05-06T10:55:53.502Z,8.67
2019-05-06T10:58:23.232Z,7.27
2019-05-06T11:01:03.641Z,6.40
2019-05-06T11:03:33.535Z,7.03
2019-05-06T11:06:03.535Z,7.00
2019-05-06T11:08:33.650Z,7.57
2019-05-06T11:11:14.996Z,7.43
2019-05-06T11:13:35.260Z,8.00
2019-05-06T11:16:05.290Z,7.57
2019-05-06T11:18:35.166Z,7.00
2019-05-06T11:21:05.382Z,7.63
2019-05-06T11:23:35.309Z,8.20
2019-05-06T11:26:05.211Z,7.43
2019-05-06T11:28:45.746Z,8.63
2019-05-06T11:31:26.554Z,8.73
2019-05-06T11:34:03.054Z,8.60
2019-05-06T11:36:38.246Z,8.47
2019-05-06T11:39:08.534Z,9.07
2019-05-06T11:41:38.441Z,8.50
2019-05-06T11:44:09.197Z,8.03
2019-05-06T11:46:39.262Z,8.77
2019-05-06T11:49:09.144Z,8.90
2019-05-06T11:51:39.225Z,8.07
2019-05-06T11:54:17.493Z,8.63
2019-05-06T11:56:50.723Z,8.47
2019-05-06T11:59:13.637Z,7.80
2019-05-06T12:01:47.137Z,8.20
2019-05-06T12:04:17.056Z,8.10
2019-05-06T12:06:47.058Z,8.50
2019-05-06T12:09:17.415Z,10.33
2019-05-06T12:11:47.352Z,7.50
2019-05-06T12:14:17.323Z,7.53
2019-05-06T12:16:47.316Z,7.60
2019-05-06T12:19:17.182Z,7.27
2019-05-06T12:21:47.094Z,7.93
2019-05-06T12:24:17.012Z,6.00
2019-05-06T12:26:47.313Z,7.33
2019-05-06T12:29:17.191Z,7.60
2019-05-06T12:31:52.996Z,7.50
2019-05-06T12:34:22.903Z,8.20
2019-05-06T12:36:55.795Z,6.73
2019-05-06T12:39:29.119Z,8.23
2019-05-06T12:42:17.989Z,9.10
2019-05-06T12:44:59.502Z,7.80
2019-05-06T12:47:49.378Z,9.47
2019-05-06T12:50:19.351Z,9.80
2019-05-06T12:52:49.287Z,8.57
2019-05-06T12:55:22.791Z,8.87
2019-05-06T12:57:53.120Z,8.23
2019-05-06T13:00:25.299Z,6.63
2019-05-06T13:02:55.191Z,6.20
2019-05-06T13:05:25.039Z,7.23
2019-05-06T13:07:55.254Z,6.70
2019-05-06T13:10:25.497Z,7.57
2019-05-06T13:13:00.327Z,7.67
2019-05-06T13:15:30.410Z,7.60
2019-05-06T13:18:06.488Z,7.40
2019-05-06T13:20:36.145Z,7.17
2019-05-06T13:23:20.954Z,6.10
2019-05-06T13:25:46.756Z,6.57
2019-05-06T13:28:18.702Z,7.13
2019-05-06T13:30:48.604Z,6.77
2019-05-06T13:33:34.509Z,8.47
2019-05-06T13:36:04.631Z,6.73
2019-05-06T13:38:34.658Z,6.93
2019-05-06T13:41:04.804Z,7.30
2019-05-06T13:43:43.678Z,7.87
2019-05-06T13:46:23.133Z,6.80
2019-05-06T13:49:02.777Z,8.23
2019-05-06T13:51:33.064Z,7.77
2019-05-06T13:54:03.074Z,8.07
2019-05-06T13:56:33.453Z,9.43
2019-05-06T13:59:04.985Z,8.17
2019-05-06T14:01:47.667Z,9.90
2019-05-06T14:04:17.677Z,8.77
2019-05-06T14:06:47.585Z,8.47
2019-05-06T14:09:31.361Z,7.77
2019-05-06T14:11:49.891Z,7.97
2019-05-06T14:14:20.050Z,8.13
2019-05-06T14:16:49.956Z,7.80
2019-05-06T14:19:22.533Z,8.80
2019-05-06T14:21:52.495Z,8.13
2019-05-06T14:24:22.707Z,8.30
2019-05-06T14:26:59.145Z,8.97
2019-05-06T14:29:34.018Z,8.17
2019-05-06T14:32:03.870Z,8.43
2019-05-06T14:34:34.002Z,7.83
2019-05-06T14:37:04.322Z,8.73
2019-05-06T14:39:50.143Z,7.70
2019-05-06T14:42:08.740Z,9.63
2019-05-06T14:44:38.674Z,8.20
2019-05-06T14:47:17.537Z,7.23
2019-05-06T14:49:47.473Z,6.87
2019-05-06T14:52:26.313Z,8.40
2019-05-06T14:55:12.555Z,8.03
2019-05-06T14:57:43.003Z,6.97
2019-05-06T15:00:15.801Z,7.30
2019-05-06T15:02:45.683Z,7.67
2019-05-06T15:05:16.215Z,8.07
2019-05-06T15:07:46.104Z,7.90
2019-05-06T15:10:22.239Z,8.10
2019-05-06T15:12:47.921Z,7.27
2019-05-06T15:15:17.906Z,7.73
2019-05-06T15:17:48.104Z,7.73
2019-05-06T15:20:18.234Z,7.90
2019-05-06T15:22:48.290Z,7.70
2019-05-06T15:25:19.061Z,7.70
2019-05-06T15:27:48.951Z,7.30
2019-05-06T15:30:26.667Z,8.27
2019-05-06T15:32:56.625Z,7.97
2019-05-06T15:35:45.840Z,7.03
2019-05-06T15:38:22.099Z,7.60
2019-05-06T15:40:52.637Z,6.80
2019-05-06T15:43:22.688Z,7.10
2019-05-06T15:45:52.826Z,6.60
2019-05-06T15:48:22.731Z,6.70
2019-05-06T15:50:53.399Z,7.13
2019-05-06T15:53:23.506Z,6.07
2019-05-06T15:55:53.669Z,5.67
2019-05-06T15:58:23.590Z,5.50
2019-05-06T16:00:53.592Z,7.20
2019-05-06T16:03:23.745Z,6.50
2019-05-06T16:05:55.230Z,6.30
2019-05-06T16:08:25.372Z,6.83
2019-05-06T16:10:58.673Z,6.80
2019-05-06T16:13:26.992Z,6.77
2019-05-06T16:15:57.421Z,5.10
2019-05-06T16:18:27.376Z,6.53
2019-05-06T16:20:57.680Z,6.63
2019-05-06T16:23:37.111Z,7.10
2019-05-06T16:26:07.157Z,7.73
2019-05-06T16:28:37.872Z,9.70
2019-05-06T16:31:07.794Z,8.70
2019-05-06T16:33:37.710Z,9.33
2019-05-06T16:36:07.849Z,7.77
2019-05-06T16:38:37.758Z,7.27
2019-05-06T16:41:12.906Z,6.80
2019-05-06T16:43:39.352Z,6.70
2019-05-06T16:46:09.224Z,6.50
2019-05-06T16:48:39.251Z,8.13
2019-05-06T16:51:09.429Z,6.87
2019-05-06T16:53:39.409Z,7.10
2019-05-06T16:56:33.400Z,7.20
2019-05-06T16:59:03.758Z,7.27
2019-05-06T17:01:35.442Z,7.07
2019-05-06T17:04:18.151Z,7.70
2019-05-06T17:06:48.186Z,6.80
2019-05-06T17:09:23.730Z,5.23
2019-05-06T17:11:49.803Z,5.70
2019-05-06T17:14:20.264Z,5.70
2019-05-06T17:16:52.542Z,6.37
2019-05-06T17:19:22.991Z,5.60
2019-05-06T17:21:53.058Z,5.03
2019-05-06T17:24:22.958Z,5.90
2019-05-06T17:26:56.227Z,5.93
2019-05-06T17:29:42.923Z,4.70
2019-05-06T17:32:23.825Z,6.67
2019-05-06T17:34:57.355Z,6.30
2019-05-06T17:38:03.556Z,5.57
2019-05-06T17:40:33.545Z,6.77
2019-05-06T17:43:03.421Z,5.90
2019-05-06T17:46:02.877Z,5.83
2019-05-06T17:48:46.953Z,5.40
2019-05-06T17:51:19.012Z,5.10
2019-05-06T17:53:52.377Z,4.60
2019-05-06T17:56:22.519Z,5.57
2019-05-06T17:58:53.206Z,5.00
2019-05-06T18:01:29.183Z,7.33
2019-05-06T18:03:59.106Z,5.47
2019-05-06T18:06:28.988Z,5.70
2019-05-06T18:08:59.163Z,4.87
2019-05-06T18:11:29.155Z,5.13
2019-05-06T18:13:59.809Z,5.10
2019-05-06T18:16:29.654Z,5.27
2019-05-06T18:18:59.529Z,6.40
2019-05-06T18:21:29.422Z,5.60
2019-05-06T18:23:59.427Z,5.97
2019-05-06T18:26:29.409Z,5.53
2019-05-06T18:28:59.367Z,5.03
2019-05-06T18:31:29.907Z,5.90
2019-05-06T18:33:59.865Z,4.63
2019-05-06T18:36:29.783Z,5.60
2019-05-06T18:38:59.941Z,5.33
2019-05-06T18:41:29.881Z,5.00
2019-05-06T18:43:59.752Z,6.17
2019-05-06T18:46:29.655Z,5.60
2019-05-06T18:48:59.523Z,4.40
2019-05-06T18:51:29.427Z,5.37
2019-05-06T18:53:59.325Z,5.70
2019-05-06T18:56:29.260Z,5.43
2019-05-06T18:58:59.130Z,6.60
2019-05-06T19:01:29.204Z,6.10
2019-05-06T19:04:24.083Z,6.53
2019-05-06T19:07:09.249Z,6.40
2019-05-06T19:09:32.572Z,5.27
2019-05-06T19:12:03.509Z,6.30
2019-05-06T19:14:33.728Z,5.50
2019-05-06T19:17:03.849Z,4.77
2019-05-06T19:19:34.906Z,6.50
2019-05-06T19:22:05.315Z,5.53
2019-05-06T19:24:35.260Z,5.47
2019-05-06T19:27:05.361Z,5.20
2019-05-06T19:29:35.235Z,6.23
2019-05-06T19:32:05.625Z,7.43
2019-05-06T19:34:35.502Z,5.70
2019-05-06T19:37:05.497Z,5.30
2019-05-06T19:39:35.373Z,6.47
2019-05-06T19:42:05.366Z,5.73
2019-05-06T19:44:35.235Z,6.90
2019-05-06T19:47:05.293Z,5.47
2019-05-06T19:49:35.178Z,6.83
2019-05-06T19:52:05.182Z,8.07
2019-05-06T19:54:35.140Z,7.30
2019-05-06T19:57:05.663Z,5.60
2019-05-06T19:59:35.571Z,6.53
2019-05-06T20:02:05.569Z,7.50
2019-05-06T20:04:36.627Z,8.17
2019-05-06T20:07:16.608Z,6.50
2019-05-06T20:10:03.069Z,6.70
2019-05-06T20:12:39.237Z,7.17
2019-05-06T20:15:27.815Z,6.60
2019-05-06T20:17:57.771Z,5.80
2019-05-06T20:20:27.729Z,9.80
2019-05-06T20:22:58.024Z,8.57
2019-05-06T20:25:27.932Z,7.37
2019-05-06T20:27:58.147Z,7.00
2019-05-06T20:30:28.097Z,5.63
2019-05-06T20:32:58.622Z,6.27
2019-05-06T20:35:28.640Z,7.20
2019-05-06T20:37:58.624Z,6.70
2019-05-06T20:40:28.812Z,7.40
2019-05-06T20:43:13.176Z,7.00
2019-05-06T20:45:33.198Z,7.23
2019-05-06T20:48:03.199Z,7.70
2019-05-06T20:50:33.455Z,8.77
2019-05-06T20:53:03.501Z,9.23
2019-05-06T20:55:35.646Z,9.80
2019-05-06T20:58:05.261Z,8.67
2019-05-06T21:00:35.228Z,7.37
2019-05-06T21:03:05.480Z,6.67
2019-05-06T21:05:35.478Z,7.67
2019-05-06T21:08:05.694Z,8.10
2019-05-06T21:10:35.929Z,7.30
2019-05-06T21:13:05.884Z,8.87
2019-05-06T21:15:35.823Z,9.27
2019-05-06T21:18:05.779Z,8.27
2019-05-06T21:20:35.916Z,8.30
2019-05-06T21:23:05.892Z,10.63
2019-05-06T21:25:35.968Z,9.37
2019-05-06T21:28:05.879Z,9.23
2019-05-06T21:30:36.070Z,8.50
2019-05-06T21:33:06.046Z,8.90
2019-05-06T21:35:36.147Z,10.73
2019-05-06T21:38:06.110Z,9.80
2019-05-06T21:40:36.163Z,10.23
2019-05-06T21:43:06.042Z,9.50
2019-05-06T21:45:36.052Z,9.50
2019-05-06T21:48:05.994Z,11.80
2019-05-06T21:50:35.982Z,9.37
2019-05-06T21:53:05.915Z,9.90
2019-05-06T21:55:35.835Z,10.80
2019-05-06T21:58:06.018Z,9.80
2019-05-06T22:00:47.142Z,10.43
2019-05-06T22:03:17.338Z,10.47
2019-05-06T22:05:47.404Z,11.10
2019-05-06T22:08:17.306Z,10.67
2019-05-06T22:10:47.276Z,11.03
2019-05-06T22:13:17.200Z,11.00
2019-05-06T22:15:47.124Z,12.93
2019-05-06T22:18:17.268Z,12.60
2019-05-06T22:21:10.834Z,11.30
2019-05-06T22:23:52.294Z,11.40
2019-05-06T22:26:23.325Z,12.17
2019-05-06T22:28:53.963Z,10.33
2019-05-06T22:31:24.706Z,10.70
2019-05-06T22:33:55.033Z,12.40
2019-05-06T22:36:25.218Z,11.43
2019-05-06T22:38:55.270Z,11.70
2019-05-06T22:41:25.592Z,12.00
2019-05-06T22:43:55.693Z,13.17
2019-05-06T22:46:25.633Z,12.90
2019-05-06T22:48:55.567Z,11.00
2019-05-06T22:51:25.523Z,12.87
2019-05-06T22:53:55.417Z,12.87
2019-05-06T22:56:25.285Z,12.73
2019-05-06T22:58:55.206Z,13.13
2019-05-06T23:01:46.292Z,11.70
2019-05-06T23:04:17.215Z,13.10
2019-05-06T23:06:47.106Z,13.57
2019-05-06T23:09:17.941Z,12.67
2019-05-06T23:11:48.405Z,13.93
2019-05-06T23:14:28.859Z,13.03
2019-05-06T23:16:51.982Z,12.63
2019-05-06T23:19:24.446Z,13.60
2019-05-06T23:21:53.682Z,14.60
2019-05-06T23:24:23.666Z,13.90
2019-05-06T23:26:54.842Z,13.97
2019-05-06T23:29:25.104Z,14.80
2019-05-06T23:31:55.079Z,13.60
2019-05-06T23:34:25.031Z,13.43
2019-05-06T23:37:23.259Z,13.97
2019-05-06T23:40:47.299Z,15.00
2019-05-06T23:44:12.448Z,14.27
2019-05-06T23:47:36.087Z,13.73
2019-05-06T23:50:59.855Z,13.50
2019-05-06T23:54:23.797Z,14.17
2019-05-06T23:56:52.160Z,12.47
2019-05-06T23:59:22.615Z,14.87
